createdAt,value
2023-01-02T00:00:11.502Z,82.57
2023-01-02T00:01:10.334Z,82.57
2023-01-02T00:02:10.287Z,82.67
2023-01-02T00:03:10.283Z,82.9
2023-01-02T00:04:10.339Z,82.42
2023-01-02T00:05:10.296Z,82.29
2023-01-02T00:06:10.427Z,82.81
2023-01-02T00:07:10.498Z,82.61
2023-01-02T00:08:10.123Z,82.86
2023-01-02T00:09:10.363Z,82.57
2023-01-02T00:10:10.119Z,82.57
2023-01-02T00:11:10.398Z,82.61
2023-01-02T00:12:10.407Z,82.48
2023-01-02T00:13:10.433Z,82.86
2023-01-02T00:14:10.502Z,82.67
2023-01-02T00:15:10.466Z,82.95
2023-01-02T00:16:10.545Z,82.95
2023-01-02T00:17:10.503Z,82.95
2023-01-02T00:18:10.511Z,83.05
2023-01-02T00:19:10.541Z,83.05
2023-01-02T00:20:10.548Z,82.76
2023-01-02T00:21:10.577Z,82.76
2023-01-02T00:22:10.698Z,82.86
2023-01-02T00:23:10.601Z,82.95
2023-01-02T00:24:10.621Z,82.76
2023-01-02T00:25:10.637Z,82.76
2023-01-02T00:26:10.646Z,83.05
2023-01-02T00:27:10.679Z,82.76
2023-01-02T00:28:10.688Z,82.86
2023-01-02T00:29:10.713Z,82.67
2023-01-02T00:30:10.721Z,82.67
2023-01-02T00:31:10.964Z,82.95
2023-01-02T00:32:10.790Z,82.95
2023-01-02T00:33:10.520Z,82.76
2023-01-02T00:34:10.783Z,82.76
2023-01-02T00:35:10.813Z,82.86
2023-01-02T00:36:10.815Z,82.76
2023-01-02T00:37:10.844Z,83.05
2023-01-02T00:38:10.894Z,83.05
2023-01-02T00:39:10.878Z,82.76
2023-01-02T00:40:10.631Z,82.76
2023-01-02T00:41:10.657Z,82.86
2023-01-02T00:42:10.929Z,83.05
2023-01-02T00:43:10.945Z,83.14
2023-01-02T00:44:10.962Z,82.76
2023-01-02T00:45:10.983Z,83.38
2023-01-02T00:46:14.592Z,82.86
2023-01-02T00:47:11.046Z,82.95
2023-01-02T00:48:11.046Z,83.05
2023-01-02T00:49:11.040Z,82.95
2023-01-02T00:50:11.069Z,82.95
2023-01-02T00:51:11.102Z,82.95
2023-01-02T00:52:11.107Z,82.95
2023-01-02T00:53:11.115Z,83.05
2023-01-02T00:54:11.217Z,82.86
2023-01-02T00:55:11.160Z,82.86
2023-01-02T00:56:11.159Z,82.67
2023-01-02T00:57:11.192Z,82.86
2023-01-02T00:58:11.202Z,83.14
2023-01-02T00:59:11.220Z,83.05
2023-01-02T01:00:11.233Z,82.76
2023-01-02T01:01:11.358Z,83.05
2023-01-02T01:02:11.567Z,83.14
2023-01-02T01:03:11.516Z,82.95
2023-01-02T01:04:11.332Z,82.76
2023-01-02T01:05:11.332Z,82.76
2023-01-02T01:06:11.330Z,82.86
2023-01-02T01:07:11.356Z,82.95
2023-01-02T01:08:11.391Z,82.76
2023-01-02T01:09:11.401Z,83.14
2023-01-02T01:10:11.436Z,82.81
2023-01-02T01:11:11.419Z,82.86
2023-01-02T01:12:11.471Z,83.05
2023-01-02T01:13:11.216Z,82.95
2023-01-02T01:14:11.473Z,82.95
2023-01-02T01:15:11.485Z,82.86
2023-01-02T01:16:11.399Z,82.76
2023-01-02T01:17:11.523Z,82.67
2023-01-02T01:18:11.560Z,82.57
2023-01-02T01:19:11.528Z,82.95
2023-01-02T01:20:11.600Z,82.95
2023-01-02T01:21:11.610Z,83.05
2023-01-02T01:22:11.612Z,83.14
2023-01-02T01:23:11.367Z,83.05
2023-01-02T01:24:11.383Z,82.57
2023-01-02T01:25:11.673Z,83.05
2023-01-02T01:26:11.482Z,82.76
2023-01-02T01:27:11.718Z,82.86
2023-01-02T01:28:11.710Z,82.67
2023-01-02T01:29:11.465Z,82.76
2023-01-02T01:30:11.755Z,82.86
2023-01-02T01:31:11.925Z,83.05
2023-01-02T01:32:11.784Z,82.95
2023-01-02T01:33:11.796Z,82.57
2023-01-02T01:34:11.846Z,83.05
2023-01-02T01:35:11.584Z,82.57
2023-01-02T01:36:11.970Z,82.76
2023-01-02T01:37:11.858Z,82.95
2023-01-02T01:38:11.928Z,82.95
2023-01-02T01:39:11.911Z,82.57
2023-01-02T01:40:11.926Z,83.05
2023-01-02T01:41:11.682Z,83.05
2023-01-02T01:42:11.984Z,82.76
2023-01-02T01:43:11.715Z,82.95
2023-01-02T01:44:11.985Z,83.09
2023-01-02T01:45:12.001Z,82.76
2023-01-02T01:46:12.296Z,82.76
2023-01-02T01:47:11.777Z,82.76
2023-01-02T01:48:12.053Z,82.95
2023-01-02T01:49:12.081Z,83.14
2023-01-02T01:50:12.092Z,82.86
2023-01-02T01:51:12.108Z,83.14
2023-01-02T01:52:12.158Z,82.81
2023-01-02T01:53:12.142Z,82.86
2023-01-02T01:54:12.149Z,83.05
2023-01-02T01:55:11.927Z,82.86
2023-01-02T01:56:12.183Z,82.95
2023-01-02T01:57:12.210Z,82.95
2023-01-02T01:58:12.351Z,82.86
2023-01-02T01:59:12.233Z,82.95
2023-01-02T02:00:12.276Z,82.86
2023-01-02T02:01:12.500Z,82.86
2023-01-02T02:02:12.665Z,83.53
2023-01-02T02:03:12.446Z,83.43
2023-01-02T02:04:12.329Z,83.62
2023-01-02T02:05:12.371Z,83.43
2023-01-02T02:06:12.385Z,82.67
2023-01-02T02:07:12.383Z,83.57
2023-01-02T02:08:12.438Z,82.76
2023-01-02T02:09:12.415Z,83.24
2023-01-02T02:10:12.454Z,82.86
2023-01-02T02:11:12.457Z,83.43
2023-01-02T02:12:12.471Z,83.53
2023-01-02T02:13:12.221Z,82.76
2023-01-02T02:14:12.526Z,82.9
2023-01-02T02:15:12.519Z,82.86
2023-01-02T02:16:12.408Z,83.28
2023-01-02T02:17:12.559Z,83.18
2023-01-02T02:18:12.567Z,82.86
2023-01-02T02:19:12.589Z,82.67
2023-01-02T02:20:12.599Z,83.24
2023-01-02T02:21:12.629Z,83.72
2023-01-02T02:22:12.638Z,82.67
2023-01-02T02:23:12.654Z,83.43
2023-01-02T02:24:12.702Z,83.24
2023-01-02T02:25:12.682Z,83.43
2023-01-02T02:26:12.447Z,82.86
2023-01-02T02:27:12.883Z,83.34
2023-01-02T02:28:12.941Z,82.76
2023-01-02T02:29:12.920Z,82.86
2023-01-02T02:30:12.970Z,83.34
2023-01-02T02:31:12.966Z,82.86
2023-01-02T02:32:12.912Z,82.67
2023-01-02T02:33:12.979Z,82.86
2023-01-02T02:34:12.948Z,82.76
2023-01-02T02:35:12.856Z,83.24
2023-01-02T02:36:12.881Z,82.95
2023-01-02T02:37:12.935Z,83.24
2023-01-02T02:38:12.925Z,83.24
2023-01-02T02:39:12.944Z,83.34
2023-01-02T02:40:12.968Z,83.34
2023-01-02T02:41:12.951Z,83.14
2023-01-02T02:42:12.971Z,82.86
2023-01-02T02:43:12.941Z,83.43
2023-01-02T02:44:13.014Z,83.53
2023-01-02T02:45:13.022Z,83.34
2023-01-02T02:46:13.304Z,83.24
2023-01-02T02:47:13.059Z,82.76
2023-01-02T02:48:13.077Z,83.43
2023-01-02T02:49:13.093Z,83.53
2023-01-02T02:50:13.106Z,83.43
2023-01-02T02:51:13.128Z,83.43
2023-01-02T02:52:13.138Z,83.24
2023-01-02T02:53:13.169Z,83.24
2023-01-02T02:54:13.550Z,83.24
2023-01-02T02:55:13.219Z,83.62
2023-01-02T02:56:13.331Z,83.05
2023-01-02T02:57:13.230Z,83.43
2023-01-02T02:58:13.246Z,83.43
2023-01-02T02:59:13.288Z,83.53
2023-01-02T03:00:13.291Z,83.43
2023-01-02T03:01:13.455Z,82.86
2023-01-02T03:02:13.736Z,83.34
2023-01-02T03:03:13.496Z,83.05
2023-01-02T03:04:13.351Z,83.18
2023-01-02T03:05:13.364Z,83.43
2023-01-02T03:06:13.395Z,83.43
2023-01-02T03:07:13.400Z,83.24
2023-01-02T03:08:13.408Z,83.43
2023-01-02T03:09:13.461Z,83.43
2023-01-02T03:10:13.190Z,83.43
2023-01-02T03:11:13.214Z,83.43
2023-01-02T03:12:13.524Z,83.24
2023-01-02T03:13:13.513Z,83.24
2023-01-02T03:14:13.513Z,83.53
2023-01-02T03:15:13.274Z,83.62
2023-01-02T03:16:13.842Z,83.05
2023-01-02T03:17:13.573Z,83.24
2023-01-02T03:18:13.603Z,83.34
2023-01-02T03:19:13.615Z,82.76
2023-01-02T03:20:13.404Z,83.24
2023-01-02T03:21:13.650Z,83.14
2023-01-02T03:22:13.652Z,83.24
2023-01-02T03:23:13.669Z,83.43
2023-01-02T03:24:13.690Z,83.24
2023-01-02T03:25:13.702Z,83.24
2023-01-02T03:26:13.489Z,83.24
2023-01-02T03:27:13.743Z,83.62
2023-01-02T03:28:13.784Z,83.43
2023-01-02T03:29:13.792Z,83.53
2023-01-02T03:30:13.804Z,83.24
2023-01-02T03:31:13.690Z,83.43
2023-01-02T03:32:13.828Z,83.24
2023-01-02T03:33:13.882Z,83.24
2023-01-02T03:34:13.892Z,83.43
2023-01-02T03:35:13.888Z,83.24
2023-01-02T03:36:13.906Z,83.62
2023-01-02T03:37:13.920Z,83.24
2023-01-02T03:38:13.676Z,83.24
2023-01-02T03:39:13.987Z,83.62
2023-01-02T03:40:13.965Z,83.43
2023-01-02T03:41:13.996Z,83.24
2023-01-02T03:42:13.997Z,83.24
2023-01-02T03:43:13.754Z,83.62
2023-01-02T03:44:14.059Z,83.43
2023-01-02T03:45:14.055Z,83.24
2023-01-02T03:46:13.986Z,83.05
2023-01-02T03:47:14.078Z,83.05
2023-01-02T03:48:14.092Z,83.34
2023-01-02T03:49:14.133Z,83.53
2023-01-02T03:50:14.163Z,82.76
2023-01-02T03:51:14.145Z,83.34
2023-01-02T03:52:14.185Z,83.18
2023-01-02T03:53:13.945Z,83.24
2023-01-02T03:54:14.764Z,83.53
2023-01-02T03:55:14.217Z,83.43
2023-01-02T03:56:14.247Z,83.24
2023-01-02T03:57:14.253Z,83.43
2023-01-02T03:58:14.272Z,83.34
2023-01-02T03:59:14.378Z,83.14
2023-01-02T04:00:14.454Z,83.14
2023-01-02T04:01:14.665Z,83.43
2023-01-02T04:02:14.825Z,83.14
2023-01-02T04:03:14.546Z,83.43
2023-01-02T04:04:14.388Z,83.14
2023-01-02T04:05:14.412Z,83.24
2023-01-02T04:06:14.440Z,83.24
2023-01-02T04:07:14.423Z,83.53
2023-01-02T04:08:14.471Z,83.53
2023-01-02T04:09:14.542Z,83.14
2023-01-02T04:10:14.489Z,83.34
2023-01-02T04:11:14.496Z,83.53
2023-01-02T04:12:14.513Z,83.43
2023-01-02T04:13:14.525Z,83.24
2023-01-02T04:14:14.548Z,83.43
2023-01-02T04:15:14.592Z,83.24
2023-01-02T04:16:14.745Z,83.24
2023-01-02T04:17:14.602Z,83.24
2023-01-02T04:18:14.365Z,83.62
2023-01-02T04:19:14.628Z,82.9
2023-01-02T04:20:14.647Z,83.05
2023-01-02T04:21:14.660Z,82.76
2023-01-02T04:22:14.719Z,83.43
2023-01-02T04:23:14.693Z,83.53
2023-01-02T04:24:14.717Z,83.24
2023-01-02T04:25:14.736Z,83.62
2023-01-02T04:26:14.755Z,83.62
2023-01-02T04:27:14.765Z,83.72
2023-01-02T04:28:14.812Z,83.05
2023-01-02T04:29:14.795Z,82.86
2023-01-02T04:30:14.826Z,83.72
2023-01-02T04:31:14.926Z,82.86
2023-01-02T04:32:14.887Z,83.62
2023-01-02T04:33:14.605Z,82.86
2023-01-02T04:34:14.877Z,83.24
2023-01-02T04:35:14.910Z,83.24
2023-01-02T04:36:14.925Z,82.86
2023-01-02T04:37:14.946Z,83.09
2023-01-02T04:38:14.995Z,83.09
2023-01-02T04:39:14.980Z,83.05
2023-01-02T04:40:14.982Z,83.14
2023-01-02T04:41:15.013Z,82.81
2023-01-02T04:42:15.021Z,82.95
2023-01-02T04:43:15.074Z,82.95
2023-01-02T04:44:15.045Z,83
2023-01-02T04:45:15.110Z,82.95
2023-01-02T04:46:15.157Z,83.47
2023-01-02T04:47:22.155Z,82.81
2023-01-02T04:48:15.154Z,83.09
2023-01-02T04:49:15.139Z,83
2023-01-02T04:50:15.108Z,82.95
2023-01-02T04:51:15.378Z,82.9
2023-01-02T04:52:15.414Z,82.9
2023-01-02T04:53:15.362Z,83
2023-01-02T04:54:15.768Z,82.81
2023-01-02T04:55:15.409Z,83.53
2023-01-02T04:56:15.167Z,82.86
2023-01-02T04:57:15.383Z,82.71
2023-01-02T04:58:15.348Z,83.09
2023-01-02T04:59:15.415Z,82.95
2023-01-02T05:00:15.421Z,83
2023-01-02T05:01:15.864Z,83
2023-01-02T05:02:15.619Z,83.43
2023-01-02T05:03:15.483Z,83.57
2023-01-02T05:04:15.432Z,83.47
2023-01-02T05:05:15.426Z,83.09
2023-01-02T05:06:15.440Z,83.76
2023-01-02T05:07:15.193Z,82.71
2023-01-02T05:08:18.860Z,83
2023-01-02T05:09:15.476Z,83.18
2023-01-02T05:10:15.621Z,82.81
2023-01-02T05:11:15.535Z,82.76
2023-01-02T05:12:15.527Z,82.76
2023-01-02T05:13:15.550Z,83
2023-01-02T05:14:15.564Z,82.81
2023-01-02T05:15:15.586Z,82.81
2023-01-02T05:16:15.787Z,82.81
2023-01-02T05:17:15.618Z,82.86
2023-01-02T05:18:15.622Z,82.71
2023-01-02T05:19:15.633Z,82.81
2023-01-02T05:20:15.717Z,83
2023-01-02T05:21:15.699Z,83
2023-01-02T05:22:15.696Z,82.95
2023-01-02T05:23:15.703Z,82.81
2023-01-02T05:24:15.750Z,82.81
2023-01-02T05:25:15.777Z,82.81
2023-01-02T05:26:15.528Z,82.67
2023-01-02T05:27:15.523Z,82.95
2023-01-02T05:28:15.797Z,82.95
2023-01-02T05:29:15.810Z,82.76
2023-01-02T05:30:15.840Z,82.9
2023-01-02T05:31:15.980Z,83.09
2023-01-02T05:32:15.613Z,83
2023-01-02T05:33:15.889Z,82.9
2023-01-02T05:34:15.903Z,83.14
2023-01-02T05:35:15.912Z,82.76
2023-01-02T05:36:15.967Z,82.86
2023-01-02T05:37:15.801Z,82.86
2023-01-02T05:38:15.983Z,82.81
2023-01-02T05:39:15.737Z,82.9
2023-01-02T05:40:16.017Z,82.86
2023-01-02T05:41:16.013Z,83.09
2023-01-02T05:42:16.140Z,82.9
2023-01-02T05:43:16.072Z,82.81
2023-01-02T05:44:16.065Z,82.67
2023-01-02T05:45:16.094Z,82.61
2023-01-02T05:46:16.217Z,82.81
2023-01-02T05:47:19.095Z,82.81
2023-01-02T05:48:16.152Z,82.76
2023-01-02T05:49:15.896Z,82.61
2023-01-02T05:50:16.224Z,82.71
2023-01-02T05:51:16.206Z,82.61
2023-01-02T05:52:16.235Z,82.81
2023-01-02T05:53:16.221Z,82.76
2023-01-02T05:54:16.466Z,82.9
2023-01-02T05:55:16.007Z,82.9
2023-01-02T05:56:16.303Z,83.09
2023-01-02T05:57:16.299Z,83
2023-01-02T05:58:16.354Z,83
2023-01-02T05:59:16.072Z,82.61
2023-01-02T06:00:16.339Z,82.81
2023-01-02T06:01:16.589Z,83.18
2023-01-02T06:02:16.559Z,82.81
2023-01-02T06:03:16.321Z,82.86
2023-01-02T06:04:22.040Z,82.86
2023-01-02T06:05:16.431Z,83
2023-01-02T06:06:16.188Z,82.81
2023-01-02T06:07:16.473Z,82.81
2023-01-02T06:08:16.515Z,83.05
2023-01-02T06:09:16.508Z,82.81
2023-01-02T06:10:16.522Z,83
2023-01-02T06:11:16.528Z,82.81
2023-01-02T06:12:16.625Z,82.81
2023-01-02T06:13:16.301Z,82.81
2023-01-02T06:14:16.602Z,83.18
2023-01-02T06:15:16.601Z,82.86
2023-01-02T06:16:16.724Z,83
2023-01-02T06:17:16.640Z,83.09
2023-01-02T06:18:16.648Z,82.9
2023-01-02T06:19:16.408Z,82.81
2023-01-02T06:20:16.679Z,83.18
2023-01-02T06:21:16.731Z,82.86
2023-01-02T06:22:16.724Z,83
2023-01-02T06:23:16.744Z,83
2023-01-02T06:24:16.770Z,83
2023-01-02T06:25:16.772Z,83.53
2023-01-02T06:26:16.788Z,83
2023-01-02T06:27:16.802Z,83.05
2023-01-02T06:28:16.819Z,83
2023-01-02T06:29:16.576Z,83
2023-01-02T06:30:16.868Z,82.81
2023-01-02T06:31:16.965Z,83.09
2023-01-02T06:32:17.004Z,83.47
2023-01-02T06:33:16.909Z,83.47
2023-01-02T06:34:16.918Z,83.28
2023-01-02T06:35:16.944Z,82.9
2023-01-02T06:36:16.957Z,83.09
2023-01-02T06:37:16.978Z,83.28
2023-01-02T06:38:16.998Z,83.53
2023-01-02T06:39:17.022Z,83.67
2023-01-02T06:40:17.076Z,83.67
2023-01-02T06:41:17.046Z,82.67
2023-01-02T06:42:17.064Z,83.24
2023-01-02T06:43:17.076Z,83.28
2023-01-02T06:44:17.339Z,82.9
2023-01-02T06:45:16.852Z,83.57
2023-01-02T06:46:17.287Z,83.09
2023-01-02T06:47:17.227Z,83.09
2023-01-02T06:48:17.186Z,83.47
2023-01-02T06:49:17.332Z,83.43
2023-01-02T06:50:17.217Z,83.47
2023-01-02T06:51:17.246Z,83.47
2023-01-02T06:52:17.246Z,83.09
2023-01-02T06:53:16.990Z,83.05
2023-01-02T06:54:17.861Z,83.05
2023-01-02T06:55:17.288Z,83.47
2023-01-02T06:56:17.356Z,83.53
2023-01-02T06:57:17.144Z,83.28
2023-01-02T06:58:21.935Z,83.62
2023-01-02T06:59:17.347Z,83.28
2023-01-02T07:00:17.373Z,82.9
2023-01-02T07:01:17.781Z,82.9
2023-01-02T07:02:17.731Z,83.62
2023-01-02T07:03:17.419Z,83.47
2023-01-02T07:04:17.442Z,82.81
2023-01-02T07:05:24.826Z,82.81
2023-01-02T07:06:17.462Z,83.09
2023-01-02T07:07:17.249Z,83.28
2023-01-02T07:08:17.510Z,83.28
2023-01-02T07:09:17.514Z,83.14
2023-01-02T07:10:17.539Z,82.76
2023-01-02T07:11:17.563Z,82.9
2023-01-02T07:12:17.587Z,83.53
2023-01-02T07:13:17.587Z,83.67
2023-01-02T07:14:17.602Z,83.47
2023-01-02T07:15:17.636Z,83.43
2023-01-02T07:16:17.671Z,83.47
2023-01-02T07:17:17.646Z,83.43
2023-01-02T07:18:17.692Z,83.38
2023-01-02T07:19:17.685Z,83.14
2023-01-02T07:20:17.736Z,83.28
2023-01-02T07:21:17.465Z,83.24
2023-01-02T07:22:17.735Z,83.24
2023-01-02T07:23:17.752Z,83.28
2023-01-02T07:24:17.778Z,83.24
2023-01-02T07:25:17.797Z,83.05
2023-01-02T07:26:17.838Z,83.43
2023-01-02T07:27:17.834Z,83.28
2023-01-02T07:28:17.861Z,83.18
2023-01-02T07:29:17.861Z,82.95
2023-01-02T07:30:17.890Z,83.09
2023-01-02T07:31:18.063Z,83
2023-01-02T07:32:21.004Z,83.18
2023-01-02T07:33:17.931Z,83.09
2023-01-02T07:34:17.959Z,83.14
2023-01-02T07:35:17.707Z,83.18
2023-01-02T07:36:17.723Z,83.14
2023-01-02T07:37:17.990Z,83.47
2023-01-02T07:38:18.012Z,83.24
2023-01-02T07:39:18.023Z,83.14
2023-01-02T07:40:18.057Z,83.24
2023-01-02T07:41:17.987Z,83.14
2023-01-02T07:42:18.131Z,83.14
2023-01-02T07:43:18.110Z,83.05
2023-01-02T07:44:18.163Z,83.05
2023-01-02T07:45:18.132Z,83.09
2023-01-02T07:46:18.349Z,83.14
2023-01-02T07:47:18.169Z,83.34
2023-01-02T07:48:18.214Z,83.14
2023-01-02T07:49:17.922Z,83.28
2023-01-02T07:50:18.237Z,83.24
2023-01-02T07:51:26.880Z,83.05
2023-01-02T07:52:17.992Z,83.34
2023-01-02T07:53:18.262Z,83.24
2023-01-02T07:54:18.681Z,83.14
2023-01-02T07:55:18.305Z,83.14
2023-01-02T07:56:18.314Z,83.18
2023-01-02T07:57:18.336Z,82.95
2023-01-02T07:58:18.349Z,83.05
2023-01-02T07:59:18.367Z,83.09
2023-01-02T08:00:18.433Z,83.05
2023-01-02T08:01:18.706Z,82.9
2023-01-02T08:02:18.511Z,82.86
2023-01-02T08:03:18.763Z,82.86
2023-01-02T08:04:18.522Z,82.86
2023-01-02T08:05:18.479Z,83.24
2023-01-02T08:06:18.253Z,83.14
2023-01-02T08:07:18.505Z,83.28
2023-01-02T08:08:18.526Z,83.28
2023-01-02T08:09:18.540Z,83.18
2023-01-02T08:10:18.570Z,83.18
2023-01-02T08:11:18.572Z,83.05
2023-01-02T08:12:18.600Z,83.18
2023-01-02T08:13:18.344Z,83.14
2023-01-02T08:14:25.644Z,83.18
2023-01-02T08:15:18.657Z,83.14
2023-01-02T08:16:18.896Z,83.14
2023-01-02T08:17:18.670Z,83.14
2023-01-02T08:18:18.433Z,83.18
2023-01-02T08:19:18.712Z,83.18
2023-01-02T08:20:18.731Z,83.14
2023-01-02T08:21:18.760Z,83.18
2023-01-02T08:22:18.590Z,83.38
2023-01-02T08:23:18.783Z,83.05
2023-01-02T08:24:18.783Z,83.28
2023-01-02T08:25:18.544Z,83.38
2023-01-02T08:26:18.823Z,83.18
2023-01-02T08:27:18.846Z,83.05
2023-01-02T08:28:18.859Z,83.14
2023-01-02T08:29:18.879Z,83.05
2023-01-02T08:30:18.902Z,83.05
2023-01-02T08:31:19.072Z,83.18
2023-01-02T08:32:18.957Z,83.14
2023-01-02T08:33:18.952Z,83.09
2023-01-02T08:34:18.958Z,83.28
2023-01-02T08:35:25.362Z,83.14
2023-01-02T08:36:18.763Z,83.14
2023-01-02T08:37:19.018Z,83.18
2023-01-02T08:38:19.068Z,83.14
2023-01-02T08:39:19.054Z,83.14
2023-01-02T08:40:19.061Z,83.14
2023-01-02T08:41:19.085Z,83.14
2023-01-02T08:42:19.108Z,83.18
2023-01-02T08:43:19.122Z,83.18
2023-01-02T08:44:18.870Z,83.18
2023-01-02T08:45:19.152Z,83.14
2023-01-02T08:46:19.203Z,83.14
2023-01-02T08:47:19.194Z,83.47
2023-01-02T08:48:23.359Z,83.34
2023-01-02T08:49:19.216Z,83.24
2023-01-02T08:50:19.240Z,83
2023-01-02T08:51:19.273Z,83.14
2023-01-02T08:52:19.279Z,83.34
2023-01-02T08:53:19.306Z,83.14
2023-01-02T08:54:19.803Z,83.09
2023-01-02T08:55:19.319Z,83.05
2023-01-02T08:56:19.350Z,83.14
2023-01-02T08:57:19.362Z,83.14
2023-01-02T08:58:19.378Z,83.28
2023-01-02T08:59:19.402Z,83.14
2023-01-02T09:00:19.153Z,83.18
2023-01-02T09:01:19.716Z,83.09
2023-01-02T09:02:19.868Z,83.14
2023-01-02T09:03:19.589Z,83.18
2023-01-02T09:04:19.506Z,83.14
2023-01-02T09:05:19.489Z,83.28
2023-01-02T09:06:24.530Z,83.14
2023-01-02T09:07:19.529Z,83.14
2023-01-02T09:08:19.551Z,83.24
2023-01-02T09:09:19.555Z,83.18
2023-01-02T09:10:19.608Z,83.14
2023-01-02T09:11:19.593Z,83.14
2023-01-02T09:12:19.622Z,83.18
2023-01-02T09:13:19.630Z,83.18
2023-01-02T09:14:19.662Z,83.28
2023-01-02T09:15:19.677Z,83.14
2023-01-02T09:16:19.919Z,83
2023-01-02T09:17:19.706Z,83.05
2023-01-02T09:18:23.030Z,83.34
2023-01-02T09:19:19.758Z,83.28
2023-01-02T09:20:19.803Z,83.14
2023-01-02T09:21:19.791Z,83.14
2023-01-02T09:22:19.790Z,83
2023-01-02T09:23:19.811Z,83.43
2023-01-02T09:24:19.832Z,83.09
2023-01-02T09:25:26.333Z,83
2023-01-02T09:26:19.873Z,82.95
2023-01-02T09:27:19.615Z,83.38
2023-01-02T09:28:19.889Z,83.09
2023-01-02T09:29:19.904Z,83.24
2023-01-02T09:30:19.936Z,83.57
2023-01-02T09:31:20.073Z,83.47
2023-01-02T09:32:19.963Z,83.14
2023-01-02T09:33:19.971Z,83.47
2023-01-02T09:34:19.988Z,83.24
2023-01-02T09:35:20.010Z,83.28
2023-01-02T09:36:20.053Z,83.28
2023-01-02T09:37:20.061Z,83.14
2023-01-02T09:38:20.068Z,83.28
2023-01-02T09:39:20.081Z,83.18
2023-01-02T09:40:20.089Z,82.81
2023-01-02T09:41:20.138Z,83.18
2023-01-02T09:42:20.180Z,83.28
2023-01-02T09:43:20.141Z,83.24
2023-01-02T09:44:19.918Z,83.47
2023-01-02T09:45:20.175Z,82.81
2023-01-02T09:46:20.322Z,83.05
2023-01-02T09:47:20.217Z,83.28
2023-01-02T09:48:20.230Z,82.9
2023-01-02T09:49:20.273Z,83.47
2023-01-02T09:50:20.272Z,82.9
2023-01-02T09:51:20.294Z,83.28
2023-01-02T09:52:20.410Z,83.28
2023-01-02T09:53:20.327Z,83.38
2023-01-02T09:54:20.878Z,82.86
2023-01-02T09:55:20.360Z,82.9
2023-01-02T09:56:28.918Z,83.47
2023-01-02T09:57:20.134Z,83.47
2023-01-02T09:58:20.158Z,82.81
2023-01-02T09:59:20.422Z,82.71
2023-01-02T10:00:20.441Z,83
2023-01-02T10:01:20.521Z,83.67
2023-01-02T10:02:20.603Z,83.09
2023-01-02T10:03:20.873Z,83
2023-01-02T10:04:20.702Z,83.67
2023-01-02T10:05:20.263Z,83.76
2023-01-02T10:06:20.546Z,82.76
2023-01-02T10:07:20.305Z,83.47
2023-01-02T10:08:20.604Z,83.38
2023-01-02T10:09:20.601Z,83.09
2023-01-02T10:10:20.614Z,83.28
2023-01-02T10:11:20.629Z,82.81
2023-01-02T10:12:20.730Z,83.47
2023-01-02T10:13:20.656Z,83.47
2023-01-02T10:14:31.408Z,83.28
2023-01-02T10:15:23.521Z,83.18
2023-01-02T10:16:23.687Z,83.18
2023-01-02T10:17:23.550Z,83.47
2023-01-02T10:18:23.570Z,83.18
2023-01-02T10:19:23.593Z,83.09
2023-01-02T10:20:26.830Z,83
2023-01-02T10:21:23.725Z,83.05
2023-01-02T10:22:23.638Z,83.28
2023-01-02T10:23:23.690Z,83.18
2023-01-02T10:24:23.708Z,83.05
2023-01-02T10:25:23.688Z,83.18
2023-01-02T10:26:23.738Z,83.18
2023-01-02T10:27:23.747Z,83.18
2023-01-02T10:28:23.734Z,83.18
2023-01-02T10:29:23.758Z,83.18
2023-01-02T10:30:23.517Z,83.28
2023-01-02T10:31:23.907Z,83.38
2023-01-02T10:32:23.803Z,83.09
2023-01-02T10:33:23.571Z,83.38
2023-01-02T10:34:23.837Z,83.09
2023-01-02T10:35:23.610Z,83.28
2023-01-02T10:36:23.881Z,83.14
2023-01-02T10:37:23.884Z,83.28
2023-01-02T10:38:23.915Z,82.9
2023-01-02T10:39:24.040Z,83
2023-01-02T10:40:23.982Z,83.05
2023-01-02T10:41:23.960Z,83.38
2023-01-02T10:42:24.006Z,83
2023-01-02T10:43:24.015Z,83
2023-01-02T10:44:24.010Z,83
2023-01-02T10:45:24.029Z,82.9
2023-01-02T10:46:24.164Z,82.9
2023-01-02T10:47:24.077Z,83
2023-01-02T10:48:24.108Z,83.28
2023-01-02T10:49:24.106Z,82.9
2023-01-02T10:50:24.110Z,82.9
2023-01-02T10:51:24.132Z,83.38
2023-01-02T10:52:23.896Z,83.05
2023-01-02T10:53:24.157Z,82.9
2023-01-02T10:54:24.386Z,83.09
2023-01-02T10:55:24.220Z,83.05
2023-01-02T10:56:24.208Z,83.09
2023-01-02T10:57:24.231Z,83
2023-01-02T10:58:24.252Z,83.09
2023-01-02T10:59:24.035Z,83.05
2023-01-02T11:00:30.644Z,83.09
2023-01-02T11:01:24.577Z,83
2023-01-02T11:02:24.641Z,83.05
2023-01-02T11:03:24.343Z,83.18
2023-01-02T11:04:24.353Z,83.05
2023-01-02T11:05:24.378Z,83.05
2023-01-02T11:06:40.121Z,83.14
2023-01-02T11:07:24.145Z,83.09
2023-01-02T11:08:24.435Z,83.14
2023-01-02T11:09:24.434Z,83.38
2023-01-02T11:10:24.204Z,83.28
2023-01-02T11:11:24.496Z,83.18
2023-01-02T11:12:29.451Z,83.09
2023-01-02T11:13:24.503Z,83
2023-01-02T11:14:24.526Z,83.28
2023-01-02T11:15:24.331Z,83.05
2023-01-02T11:16:24.838Z,83.18
2023-01-02T11:17:24.565Z,83.24
2023-01-02T11:18:24.608Z,83.18
2023-01-02T11:19:31.665Z,83.18
2023-01-02T11:20:24.379Z,83.72
2023-01-02T11:21:24.373Z,83.47
2023-01-02T11:22:24.400Z,83.86
2023-01-02T11:23:24.682Z,83.95
2023-01-02T11:24:24.695Z,83.91
2023-01-02T11:25:24.714Z,83.91
2023-01-02T11:26:24.737Z,83.86
2023-01-02T11:27:24.761Z,83.81
2023-01-02T11:28:24.763Z,83.53
2023-01-02T11:29:24.782Z,83.91
2023-01-02T11:30:24.789Z,84.05
2023-01-02T11:31:24.966Z,83.86
2023-01-02T11:32:25.116Z,83.95
2023-01-02T11:33:24.588Z,83.86
2023-01-02T11:34:24.867Z,83.81
2023-01-02T11:35:24.879Z,83.91
2023-01-02T11:36:24.632Z,84.05
2023-01-02T11:37:24.666Z,83.95
2023-01-02T11:38:32.474Z,83.95
2023-01-02T11:39:24.991Z,84.05
2023-01-02T11:40:24.711Z,83.95
2023-01-02T11:41:24.987Z,83.95
2023-01-02T11:42:24.995Z,83.95
2023-01-02T11:43:25.074Z,84.05
2023-01-02T11:44:25.032Z,83.95
2023-01-02T11:45:25.095Z,84.05
2023-01-02T11:46:25.098Z,83.95
2023-01-02T11:47:25.122Z,83.67
2023-01-02T11:48:25.106Z,83.91
2023-01-02T11:49:25.118Z,83.72
2023-01-02T11:50:25.161Z,83.62
2023-01-02T11:51:25.157Z,83.81
2023-01-02T11:52:25.173Z,83.95
2023-01-02T11:53:24.923Z,83.67
2023-01-02T11:54:25.312Z,83.67
2023-01-02T11:55:25.228Z,83.81
2023-01-02T11:56:25.235Z,83.86
2023-01-02T11:57:25.275Z,83.67
2023-01-02T11:58:25.322Z,83.76
2023-01-02T11:59:25.325Z,83.95
2023-01-02T12:00:25.308Z,83.67
2023-01-02T12:01:25.414Z,83.81
2023-01-02T12:02:25.608Z,84
2023-01-02T12:03:25.619Z,83.95
2023-01-02T12:04:25.304Z,83.81
2023-01-02T12:05:25.136Z,83.72
2023-01-02T12:06:25.414Z,83.86
2023-01-02T12:07:25.170Z,83.76
2023-01-02T12:08:25.437Z,83.67
2023-01-02T12:09:25.464Z,83.72
2023-01-02T12:10:25.493Z,83.72
2023-01-02T12:11:25.497Z,83.86
2023-01-02T12:12:25.519Z,83.91
2023-01-02T12:13:25.539Z,83.81
2023-01-02T12:14:25.290Z,83.62
2023-01-02T12:15:25.583Z,83.62
2023-01-02T12:16:25.684Z,83.81
2023-01-02T12:17:25.350Z,83.81
2023-01-02T12:18:25.403Z,84.2
2023-01-02T12:19:25.749Z,83.53
2023-01-02T12:20:25.674Z,83.81
2023-01-02T12:21:25.704Z,83.72
2023-01-02T12:22:25.684Z,83.95
2023-01-02T12:23:25.712Z,84.2
2023-01-02T12:24:25.718Z,83.72
2023-01-02T12:25:25.500Z,84.2
2023-01-02T12:26:25.749Z,84.2
2023-01-02T12:27:25.778Z,83.81
2023-01-02T12:28:25.795Z,83.62
2023-01-02T12:29:49.911Z,83.81
2023-01-02T12:30:25.827Z,83.53
2023-01-02T12:31:26.027Z,83.81
2023-01-02T12:32:25.995Z,83.81
2023-01-02T12:33:25.879Z,83.81
2023-01-02T12:34:25.905Z,83.53
2023-01-02T12:35:25.941Z,83.81
2023-01-02T12:36:25.931Z,83.91
2023-01-02T12:37:25.942Z,84.1
2023-01-02T12:38:33.118Z,84
2023-01-02T12:39:25.974Z,83.72
2023-01-02T12:40:25.997Z,83.72
2023-01-02T12:41:26.013Z,83.81
2023-01-02T12:42:26.025Z,83.86
2023-01-02T12:43:26.065Z,83.91
2023-01-02T12:44:33.831Z,83.72
2023-01-02T12:45:26.075Z,83.62
2023-01-02T12:46:26.166Z,83.81
2023-01-02T12:47:26.132Z,83.81
2023-01-02T12:48:25.868Z,83.81
2023-01-02T12:49:25.890Z,83.86
2023-01-02T12:50:25.898Z,83.81
2023-01-02T12:51:25.947Z,83.72
2023-01-02T12:52:26.205Z,83.81
2023-01-02T12:53:26.223Z,83.91
2023-01-02T12:54:26.628Z,83.81
2023-01-02T12:55:26.258Z,83.91
2023-01-02T12:56:26.258Z,83.62
2023-01-02T12:57:26.276Z,83.62